Terminal Aerodrome Forecast
Issued by NWS

Home | Current Version | Previous Version | Text Only | Print | Product List | Glossary On
Versions: 1 2 3 4 5 6 7 8 9 10 11 12 13
000
FTUS45 KABQ 171700
TAFFMN
TAF
KFMN 171740Z 1718/1818 26005KT P6SM OVC080
      TEMPO 1720/1724 5SM -SHSN OVC030
     FM180000 VRB03KT P6SM OVC050=

USA.gov is the U.S. government's official web portal to all federal, state and local government web resources and services.